This is the latest recevied weather packets stored in our database for station/object HA3YA-WX. If no packets are shown the sender has not sent any weather packets the latest 10 day(s).
| Time | Temp. | Humidity | Pressure | Rain* | Wind** | Luminosity | Snow |
|---|---|---|---|---|---|---|---|
| 1788468684 | 22.22° C | 79% | 1005.7 hPa | - | - | - | - |
| 1788466885 | 22.78° C | 80% | 1005.7 hPa | - | - | - | - |
| 1788466284 | 22.78° C | 80% | 1005 hPa | - | - | - | - |
| 1788464485 | 23.33° C | 82% | 1005.5 hPa | - | - | - | - |
| 1788448885 | 28.33° C | 60% | 1004 hPa | - | - | - | - |
| 1788447088 | 31.11° C | 55% | 1005.1 hPa | - | - | - | - |
| 1788445285 | 30.56° C | 58% | 1005 hPa | - | - | - | - |
| 1788443485 | 30° C | 59% | 1005.5 hPa | - | - | - | - |
| 1788442285 | 30° C | 56% | 1005 hPa | - | - | - | - |
| 1788438685 | 31.11° C | 52% | 1006 hPa | - | - | - | - |
| 1788436284 | 30.56° C | 50% | 1006 hPa | - | - | - | - |
| 1788434484 | 29.44° C | 56% | 1006 hPa | - | - | - | - |
| 1788433885 | 28.89° C | 56% | 1006 hPa | - | - | - | - |
| 1788433284 | 28.89° C | 55% | 1006 hPa | - | - | - | - |
| 1788431485 | 26.11° C | 64% | 1007.3 hPa | - | - | - | - |
| 1788430884 | 25.56° C | 65% | 1007.3 hPa | - | - | - | - |
| 1788430284 | 25.56° C | 68% | 1007.3 hPa | - | - | - | - |
| 1788429684 | 25.56° C | 68% | 1007 hPa | - | - | - | - |
| 1788429085 | 26.11° C | 67% | 1007 hPa | - | - | - | - |
| 1788428484 | 25.56° C | 65% | 1007 hPa | - | - | - | - |
| 1788427884 | 25.56° C | 68% | 1007 hPa | - | - | - | - |
| 1788427284 | 26.11° C | 64% | 1007 hPa | - | - | - | - |
| 1788426685 | 26.11° C | 65% | 1007.7 hPa | - | - | - | - |
| 1788426085 | 26.67° C | 65% | 1007 hPa | - | - | - | - |
| 1788424285 | 26.11° C | 67% | 1007 hPa | - | - | - | - |
* Rain since midnight (hover to see other rain measurements)
** Current wind speed in m/s (hover to see current wind gust speed)